sensor_id;sensor_type;location;lat;lon;timestamp;temperature;humidity
56123;DHT22;42426;46.104;19.656;2022-12-20T17:51:24;52.10;2227.20
56123;DHT22;42426;46.104;19.656;2022-12-20T17:53:53;52.10;2227.20
56123;DHT22;42426;46.104;19.656;2022-12-20T17:56:22;52.10;2227.20
56123;DHT22;42426;46.104;19.656;2022-12-20T17:58:47;52.10;2227.20
56123;DHT22;42426;46.104;19.656;2022-12-20T18:01:24;52.10;2227.20
56123;DHT22;42426;46.104;19.656;2022-12-20T18:03:52;52.10;2227.20
56123;DHT22;42426;46.104;19.656;2022-12-20T18:06:19;52.10;2227.20
56123;DHT22;42426;46.104;19.656;2022-12-20T18:08:53;52.10;2227.20
56123;DHT22;42426;46.104;19.656;2022-12-20T18:11:20;52.10;2227.20
56123;DHT22;42426;46.104;19.656;2022-12-20T18:13:48;52.10;2227.20
56123;DHT22;42426;46.104;19.656;2022-12-20T18:16:18;52.10;2227.20
56123;DHT22;42426;46.104;19.656;2022-12-20T18:18:44;52.10;2227.20
56123;DHT22;42426;46.104;19.656;2022-12-20T18:21:13;52.10;2227.20
56123;DHT22;42426;46.104;19.656;2022-12-20T18:23:40;52.10;2227.20
56123;DHT22;42426;46.104;19.656;2022-12-20T18:28:35;52.00;2227.20
56123;DHT22;42426;46.104;19.656;2022-12-20T18:31:03;52.00;2227.20
56123;DHT22;42426;46.104;19.656;2022-12-20T18:33:29;52.00;2227.20
56123;DHT22;42426;46.104;19.656;2022-12-20T18:36:03;52.00;2227.20
56123;DHT22;42426;46.104;19.656;2022-12-20T18:38:29;52.00;2227.20
56123;DHT22;42426;46.104;19.656;2022-12-20T18:40:59;52.00;2227.20
56123;DHT22;42426;46.104;19.656;2022-12-20T18:43:29;52.00;2227.20
56123;DHT22;42426;46.104;19.656;2022-12-20T18:46:12;52.00;2227.20
56123;DHT22;42426;46.104;19.656;2022-12-20T18:48:38;52.00;2227.20
56123;DHT22;42426;46.104;19.656;2022-12-20T18:51:12;52.00;2227.20
56123;DHT22;42426;46.104;19.656;2022-12-20T18:53:38;52.00;2227.20
56123;DHT22;42426;46.104;19.656;2022-12-20T18:56:10;51.90;2227.20
56123;DHT22;42426;46.104;19.656;2022-12-20T18:58:36;51.90;2227.20
56123;DHT22;42426;46.104;19.656;2022-12-20T19:01:14;51.90;2227.20
56123;DHT22;42426;46.104;19.656;2022-12-20T19:03:40;51.90;2227.20
56123;DHT22;42426;46.104;19.656;2022-12-20T19:06:07;51.90;2227.20
56123;DHT22;42426;46.104;19.656;2022-12-20T19:08:33;51.90;2227.20
56123;DHT22;42426;46.104;19.656;2022-12-20T19:11:03;51.90;2227.20
56123;DHT22;42426;46.104;19.656;2022-12-20T19:13:29;51.90;2227.20
56123;DHT22;42426;46.104;19.656;2022-12-20T19:16:14;51.90;2227.20
56123;DHT22;42426;46.104;19.656;2022-12-20T19:18:42;51.80;2227.20
56123;DHT22;42426;46.104;19.656;2022-12-20T19:21:13;51.80;2227.20
56123;DHT22;42426;46.104;19.656;2022-12-20T19:23:40;51.80;2227.20
56123;DHT22;42426;46.104;19.656;2022-12-20T19:26:08;51.70;2227.20
56123;DHT22;42426;46.104;19.656;2022-12-20T19:28:34;51.70;2227.20
56123;DHT22;42426;46.104;19.656;2022-12-20T19:31:18;51.70;2227.20
56123;DHT22;42426;46.104;19.656;2022-12-20T19:33:49;51.70;2227.20
56123;DHT22;42426;46.104;19.656;2022-12-20T19:36:29;51.70;2227.20
56123;DHT22;42426;46.104;19.656;2022-12-20T19:38:57;51.70;2227.20
56123;DHT22;42426;46.104;19.656;2022-12-20T19:41:26;51.70;2227.20
56123;DHT22;42426;46.104;19.656;2022-12-20T19:43:52;51.70;2227.20
56123;DHT22;42426;46.104;19.656;2022-12-20T19:46:19;51.70;2227.20
56123;DHT22;42426;46.104;19.656;2022-12-20T19:48:50;51.70;2227.20
56123;DHT22;42426;46.104;19.656;2022-12-20T19:51:16;51.60;2227.20
56123;DHT22;42426;46.104;19.656;2022-12-20T19:53:44;51.60;2227.20
56123;DHT22;42426;46.104;19.656;2022-12-20T19:56:15;51.60;2227.20
56123;DHT22;42426;46.104;19.656;2022-12-20T19:58:42;51.50;2227.20
56123;DHT22;42426;46.104;19.656;2022-12-20T20:01:08;51.60;2227.20
56123;DHT22;42426;46.104;19.656;2022-12-20T20:03:35;51.60;2227.20
56123;DHT22;42426;46.104;19.656;2022-12-20T20:06:03;51.60;2227.20
56123;DHT22;42426;46.104;19.656;2022-12-20T20:08:29;51.60;2227.20
56123;DHT22;42426;46.104;19.656;2022-12-20T20:10:57;51.50;2227.20
56123;DHT22;42426;46.104;19.656;2022-12-20T20:13:24;51.60;2227.20
56123;DHT22;42426;46.104;19.656;2022-12-20T20:15:53;51.50;2227.20
56123;DHT22;42426;46.104;19.656;2022-12-20T20:18:19;51.50;2227.20
56123;DHT22;42426;46.104;19.656;2022-12-20T20:20:45;51.60;2227.20
56123;DHT22;42426;46.104;19.656;2022-12-20T20:23:11;51.60;2227.20
56123;DHT22;42426;46.104;19.656;2022-12-20T20:25:36;51.60;2227.20
56123;DHT22;42426;46.104;19.656;2022-12-20T20:28:03;51.50;2227.20
56123;DHT22;42426;46.104;19.656;2022-12-20T20:30:29;51.60;2227.20
56123;DHT22;42426;46.104;19.656;2022-12-20T20:32:55;51.60;2227.20
56123;DHT22;42426;46.104;19.656;2022-12-20T20:35:20;51.50;2227.20
56123;DHT22;42426;46.104;19.656;2022-12-20T20:37:46;51.50;2227.20
56123;DHT22;42426;46.104;19.656;2022-12-20T20:40:12;51.50;2227.20
56123;DHT22;42426;46.104;19.656;2022-12-20T20:42:40;51.50;2227.20
56123;DHT22;42426;46.104;19.656;2022-12-20T20:45:06;51.50;2227.20
56123;DHT22;42426;46.104;19.656;2022-12-20T20:47:32;51.50;2227.20
56123;DHT22;42426;46.104;19.656;2022-12-20T20:49:58;51.50;2227.20
56123;DHT22;42426;46.104;19.656;2022-12-20T20:52:23;51.50;2227.20
56123;DHT22;42426;46.104;19.656;2022-12-20T20:54:49;51.50;2227.20
56123;DHT22;42426;46.104;19.656;2022-12-20T20:57:15;51.40;2227.20
56123;DHT22;42426;46.104;19.656;2022-12-20T20:59:40;51.40;2227.20
56123;DHT22;42426;46.104;19.656;2022-12-20T21:02:11;51.40;2227.20
56123;DHT22;42426;46.104;19.656;2022-12-20T21:04:37;51.40;2227.20
56123;DHT22;42426;46.104;19.656;2022-12-20T21:07:03;51.40;2227.20
56123;DHT22;42426;46.104;19.656;2022-12-20T21:09:29;51.40;2227.20
56123;DHT22;42426;46.104;19.656;2022-12-20T21:11:56;51.40;2227.20
56123;DHT22;42426;46.104;19.656;2022-12-20T21:14:22;51.40;2227.20
56123;DHT22;42426;46.104;19.656;2022-12-20T21:16:48;51.40;2227.20
56123;DHT22;42426;46.104;19.656;2022-12-20T21:19:13;51.40;2227.20
56123;DHT22;42426;46.104;19.656;2022-12-20T21:21:39;51.40;2227.20
56123;DHT22;42426;46.104;19.656;2022-12-20T21:24:05;51.40;2227.20
56123;DHT22;42426;46.104;19.656;2022-12-20T21:26:30;51.40;2227.20
56123;DHT22;42426;46.104;19.656;2022-12-20T21:28:59;51.40;2227.20
56123;DHT22;42426;46.104;19.656;2022-12-20T21:31:25;51.40;2227.20
56123;DHT22;42426;46.104;19.656;2022-12-20T21:33:51;51.40;2227.20
56123;DHT22;42426;46.104;19.656;2022-12-20T21:36:18;51.40;2227.20
56123;DHT22;42426;46.104;19.656;2022-12-20T21:38:48;51.40;2227.20
56123;DHT22;42426;46.104;19.656;2022-12-20T21:41:15;51.40;2227.20
56123;DHT22;42426;46.104;19.656;2022-12-20T21:43:42;51.40;2227.20
56123;DHT22;42426;46.104;19.656;2022-12-20T21:46:08;51.30;2227.20
56123;DHT22;42426;46.104;19.656;2022-12-20T21:48:37;51.40;2227.20
56123;DHT22;42426;46.104;19.656;2022-12-20T21:51:08;51.40;2227.20
56123;DHT22;42426;46.104;19.656;2022-12-20T21:53:35;51.40;2227.20
56123;DHT22;42426;46.104;19.656;2022-12-20T21:56:02;51.40;2227.20
56123;DHT22;42426;46.104;19.656;2022-12-20T21:58:29;51.40;2227.20
56123;DHT22;42426;46.104;19.656;2022-12-20T22:00:55;51.40;2227.20
56123;DHT22;42426;46.104;19.656;2022-12-20T22:03:22;51.40;2227.20
56123;DHT22;42426;46.104;19.656;2022-12-20T22:05:50;51.40;2227.20
56123;DHT22;42426;46.104;19.656;2022-12-20T22:08:16;51.30;2227.20
56123;DHT22;42426;46.104;19.656;2022-12-20T22:10:42;51.30;2227.20
56123;DHT22;42426;46.104;19.656;2022-12-20T22:13:09;51.30;2227.20
56123;DHT22;42426;46.104;19.656;2022-12-20T22:15:36;51.30;2227.20
56123;DHT22;42426;46.104;19.656;2022-12-20T22:18:03;51.20;2227.20
56123;DHT22;42426;46.104;19.656;2022-12-20T22:20:29;51.30;2227.20
56123;DHT22;42426;46.104;19.656;2022-12-20T22:22:55;51.20;2227.20
56123;DHT22;42426;46.104;19.656;2022-12-20T22:25:21;51.20;2227.20
56123;DHT22;42426;46.104;19.656;2022-12-20T22:27:46;51.20;2227.20
56123;DHT22;42426;46.104;19.656;2022-12-20T22:30:12;51.20;2227.20
56123;DHT22;42426;46.104;19.656;2022-12-20T22:32:39;51.20;2227.20
56123;DHT22;42426;46.104;19.656;2022-12-20T22:35:05;51.20;2227.20
56123;DHT22;42426;46.104;19.656;2022-12-20T22:37:31;51.20;2227.20
56123;DHT22;42426;46.104;19.656;2022-12-20T22:39:57;51.20;2227.20
56123;DHT22;42426;46.104;19.656;2022-12-20T22:42:22;26.50;2201.60
56123;DHT22;42426;46.104;19.656;2022-12-20T22:44:48;26.50;2201.60
56123;DHT22;42426;46.104;19.656;2022-12-20T22:47:14;26.50;2201.60
56123;DHT22;42426;46.104;19.656;2022-12-20T22:49:40;26.50;2201.60
56123;DHT22;42426;46.104;19.656;2022-12-20T22:52:06;26.50;2201.60
56123;DHT22;42426;46.104;19.656;2022-12-20T22:54:32;26.50;2201.60
56123;DHT22;42426;46.104;19.656;2022-12-20T22:56:58;26.50;2201.60
56123;DHT22;42426;46.104;19.656;2022-12-20T22:59:23;26.50;2201.60
56123;DHT22;42426;46.104;19.656;2022-12-20T23:01:49;51.20;2227.20
56123;DHT22;42426;46.104;19.656;2022-12-20T23:04:15;51.20;2227.20
56123;DHT22;42426;46.104;19.656;2022-12-20T23:06:41;51.20;2227.20
56123;DHT22;42426;46.104;19.656;2022-12-20T23:09:07;51.20;2227.20
56123;DHT22;42426;46.104;19.656;2022-12-20T23:11:32;51.20;2227.20
56123;DHT22;42426;46.104;19.656;2022-12-20T23:14:19;51.20;2227.20
56123;DHT22;42426;46.104;19.656;2022-12-20T23:17:04;51.20;2227.20
56123;DHT22;42426;46.104;19.656;2022-12-20T23:19:31;26.50;2201.60
56123;DHT22;42426;46.104;19.656;2022-12-20T23:22:18;26.50;2201.60
56123;DHT22;42426;46.104;19.656;2022-12-20T23:27:31;26.50;2201.60
56123;DHT22;42426;46.104;19.656;2022-12-20T23:29:58;26.50;2201.60
56123;DHT22;42426;46.104;19.656;2022-12-20T23:32:24;26.50;2201.60
56123;DHT22;42426;46.104;19.656;2022-12-20T23:34:50;26.40;2201.60
56123;DHT22;42426;46.104;19.656;2022-12-20T23:37:15;26.40;2201.60
56123;DHT22;42426;46.104;19.656;2022-12-20T23:39:41;26.40;2201.60
56123;DHT22;42426;46.104;19.656;2022-12-20T23:42:07;26.40;2201.60
56123;DHT22;42426;46.104;19.656;2022-12-20T23:44:33;26.40;2201.60
56123;DHT22;42426;46.104;19.656;2022-12-20T23:46:58;26.40;2201.60
56123;DHT22;42426;46.104;19.656;2022-12-20T23:49:24;26.40;2201.60
56123;DHT22;42426;46.104;19.656;2022-12-20T23:51:50;26.40;2201.60
56123;DHT22;42426;46.104;19.656;2022-12-20T23:54:15;26.40;2201.60
56123;DHT22;42426;46.104;19.656;2022-12-20T23:56:44;26.40;2201.60
56123;DHT22;42426;46.104;19.656;2022-12-20T23:59:09;26.40;2201.60
